Auke Bay, Alaska
Current Conditions -  °F | °C
As of 7:53 AM on Sunday 21 Dec 2014 (Local Time) from PAJN Reporting Station
Light Rain Light Rain  
Wind Chill:   Ceiling: 800
Heat Index:   Visibility: 7mi
Dew Point:   Wind: 0mph
Humidity: 96%   Direction: NA
Pressure: 29.35"   Gusts: NA
Location:  58.38°N, 134.67°W
Report Text: PAJN 211653Z 00000KT 7SM -RA BKN008 BKN010 OVC042 02/01 A2935 RMK AO2 SLP938 P0001 T00170011
Loading
Personal Weather Stations






























Interactive Weather Map New forecast layout! Learn more

10-Day Weather Forecast

Advertisements
Track Severe Weather on mobile